createdAt,value
2022-12-28T00:01:19.131Z,60.11
2022-12-28T00:03:46.479Z,60.05
2022-12-28T00:06:13.957Z,60.26
2022-12-28T00:08:40.945Z,60.42
2022-12-28T00:11:20.583Z,60.43
2022-12-28T00:13:56.097Z,60.11
2022-12-28T00:16:28.424Z,60.23
2022-12-28T00:18:56.212Z,60.34
2022-12-28T00:21:23.340Z,60.24
2022-12-28T00:23:57.202Z,60.62
2022-12-28T00:26:25.078Z,60.48
2022-12-28T00:28:51.594Z,60.63
2022-12-28T00:31:18.197Z,60.45
2022-12-28T00:33:45.638Z,60.42
2022-12-28T00:36:14.516Z,60.76
2022-12-28T00:38:41.797Z,60.79
2022-12-28T00:41:09.571Z,60.81
2022-12-28T00:43:36.421Z,60.44
2022-12-28T00:46:03.666Z,60.82
2022-12-28T00:48:30.409Z,60.64
2022-12-28T00:51:18.212Z,60.78
2022-12-28T00:53:45.394Z,60.88
2022-12-28T00:56:17.595Z,60.61
2022-12-28T00:58:45.213Z,60.64
2022-12-28T01:01:15.150Z,60.65
2022-12-28T01:03:41.969Z,60.84
2022-12-28T01:06:10.869Z,60.97
2022-12-28T01:08:38.690Z,60.96
2022-12-28T01:11:10.382Z,60.95
2022-12-28T01:13:37.529Z,61.07
2022-12-28T01:16:15.426Z,61.02
2022-12-28T01:18:43.317Z,61.00
2022-12-28T01:21:18.515Z,60.80
2022-12-28T01:23:46.340Z,61.05
2022-12-28T01:26:13.848Z,61.01
2022-12-28T01:28:40.832Z,61.10
2022-12-28T01:31:12.329Z,61.07
2022-12-28T01:33:39.173Z,61.14
2022-12-28T01:36:14.478Z,61.06
2022-12-28T01:38:41.030Z,60.80
2022-12-28T01:41:10.024Z,61.05
2022-12-28T01:43:41.326Z,61.21
2022-12-28T01:46:11.239Z,60.98
2022-12-28T01:48:45.830Z,60.78
2022-12-28T01:51:12.495Z,61.04
2022-12-28T01:53:39.418Z,60.91
2022-12-28T01:56:06.299Z,60.74
2022-12-28T01:58:34.368Z,60.78
2022-12-28T02:01:01.618Z,61.06
2022-12-28T02:03:30.965Z,60.97
2022-12-28T02:06:01.991Z,60.95
2022-12-28T02:08:53.750Z,60.81
2022-12-28T02:11:20.829Z,61.04
2022-12-28T02:13:49.387Z,61.01
2022-12-28T02:16:17.952Z,60.97
2022-12-28T02:18:46.397Z,60.74
2022-12-28T02:21:27.760Z,60.91
2022-12-28T02:24:25.573Z,60.79
2022-12-28T02:27:22.648Z,60.76
2022-12-28T02:29:57.973Z,60.97
2022-12-28T02:33:07.850Z,60.89
2022-12-28T02:35:56.850Z,60.84
2022-12-28T02:38:34.661Z,60.85
2022-12-28T02:41:12.708Z,60.85
2022-12-28T02:43:39.701Z,60.73
2022-12-28T02:46:35.539Z,60.81
2022-12-28T02:49:39.705Z,61.23
2022-12-28T02:52:12.886Z,60.86
2022-12-28T02:55:28.405Z,60.89
2022-12-28T02:57:58.130Z,60.80
2022-12-28T03:00:29.595Z,61.11
2022-12-28T03:03:15.676Z,61.03
2022-12-28T03:06:30.256Z,61.10
2022-12-28T03:09:09.942Z,60.89
2022-12-28T03:12:04.079Z,61.20
2022-12-28T03:14:39.631Z,61.18
2022-12-28T03:17:27.246Z,61.42
2022-12-28T03:20:16.896Z,61.28
2022-12-28T03:23:04.157Z,61.23
2022-12-28T03:25:56.451Z,61.67
2022-12-28T03:28:50.267Z,61.32
2022-12-28T03:31:23.624Z,61.50
2022-12-28T03:34:06.651Z,61.52
2022-12-28T03:37:00.197Z,61.97
2022-12-28T03:39:49.794Z,61.84
2022-12-28T03:42:45.906Z,62.11
2022-12-28T03:45:46.688Z,62.07
2022-12-28T03:48:12.050Z,61.99
2022-12-28T03:50:42.761Z,61.95
2022-12-28T03:53:09.937Z,62.14
2022-12-28T03:55:39.786Z,62.28
2022-12-28T03:58:07.349Z,62.13
2022-12-28T04:00:34.047Z,62.35
2022-12-28T04:03:00.956Z,62.71
2022-12-28T04:05:28.462Z,62.35
2022-12-28T04:07:55.041Z,62.60
2022-12-28T04:10:22.782Z,62.78
2022-12-28T04:12:53.770Z,62.68
2022-12-28T04:15:38.416Z,62.86
2022-12-28T04:18:05.202Z,62.89
2022-12-28T04:20:32.289Z,62.94
2022-12-28T04:22:58.881Z,62.92
2022-12-28T04:25:25.474Z,62.90
2022-12-28T04:27:52.800Z,62.80
2022-12-28T04:30:37.490Z,62.71
2022-12-28T04:33:04.481Z,63.25
2022-12-28T04:35:32.877Z,63.20
2022-12-28T04:37:59.598Z,63.29
2022-12-28T04:40:26.078Z,63.07
2022-12-28T04:42:52.546Z,63.41
2022-12-28T04:45:22.108Z,63.33
2022-12-28T04:47:49.185Z,63.19
2022-12-28T04:50:15.726Z,63.35
2022-12-28T04:52:43.228Z,63.31
2022-12-28T04:55:32.664Z,63.23
2022-12-28T04:57:56.267Z,63.75
2022-12-28T05:00:22.948Z,63.42
2022-12-28T05:02:49.569Z,63.65
2022-12-28T05:05:16.159Z,63.69
2022-12-28T05:07:42.677Z,63.52
2022-12-28T05:10:09.423Z,63.55
2022-12-28T05:12:35.970Z,63.54
2022-12-28T05:15:02.547Z,63.86
2022-12-28T05:17:29.062Z,63.81
2022-12-28T05:19:55.602Z,63.75
2022-12-28T05:22:22.171Z,63.84
2022-12-28T05:24:48.636Z,63.89
2022-12-28T05:27:15.175Z,64.03
2022-12-28T05:29:41.742Z,63.88
2022-12-28T05:32:08.290Z,63.98
2022-12-28T05:34:34.785Z,64.16
2022-12-28T05:37:01.316Z,63.86
2022-12-28T05:39:28.044Z,64.22
2022-12-28T05:41:54.670Z,64.07
2022-12-28T05:44:21.176Z,64.09
2022-12-28T05:46:47.850Z,64.25
2022-12-28T05:49:14.330Z,64.35
2022-12-28T05:51:40.887Z,64.27
2022-12-28T05:54:07.480Z,64.24
2022-12-28T05:56:34.368Z,64.21
2022-12-28T05:59:06.387Z,64.42
2022-12-28T06:01:36.177Z,64.48
2022-12-28T06:04:05.710Z,64.27
2022-12-28T06:06:34.687Z,64.60
2022-12-28T06:09:01.810Z,64.72
2022-12-28T06:11:29.524Z,64.67
2022-12-28T06:13:58.330Z,64.63
2022-12-28T06:16:27.763Z,64.77
2022-12-28T06:18:54.437Z,64.27
2022-12-28T06:21:30.027Z,64.56
2022-12-28T06:23:58.442Z,64.89
2022-12-28T06:26:26.750Z,64.58
2022-12-28T06:28:53.281Z,64.75
2022-12-28T06:31:25.259Z,64.76
2022-12-28T06:33:57.090Z,65.20
2022-12-28T06:36:26.624Z,65.05
2022-12-28T06:38:56.029Z,65.01
2022-12-28T06:41:23.259Z,65.13
2022-12-28T06:43:50.442Z,64.82
2022-12-28T06:46:18.761Z,65.18
2022-12-28T06:48:45.643Z,64.85
2022-12-28T06:51:16.680Z,65.22
2022-12-28T06:53:43.991Z,64.96
2022-12-28T06:56:13.601Z,65.12
2022-12-28T06:58:41.149Z,64.95
2022-12-28T07:01:17.161Z,65.07
2022-12-28T07:03:45.446Z,65.08
2022-12-28T07:06:13.657Z,65.23
2022-12-28T07:08:40.266Z,65.33
2022-12-28T07:11:12.106Z,64.97
2022-12-28T07:13:39.312Z,65.30
2022-12-28T07:16:12.404Z,65.48
2022-12-28T07:18:39.127Z,64.94
2022-12-28T07:21:08.369Z,65.18
2022-12-28T07:23:35.402Z,65.47
2022-12-28T07:26:11.192Z,65.45
2022-12-28T07:28:39.000Z,65.43
2022-12-28T07:31:08.144Z,65.23
2022-12-28T07:33:36.066Z,65.44
2022-12-28T07:36:04.735Z,65.39
2022-12-28T07:38:31.390Z,65.42
2022-12-28T07:41:02.552Z,65.62
2022-12-28T07:43:30.170Z,65.45
2022-12-28T07:46:17.225Z,65.42
2022-12-28T07:48:44.843Z,65.41
2022-12-28T07:51:15.844Z,65.37
2022-12-28T07:53:44.683Z,65.75
2022-12-28T07:56:12.980Z,65.82
2022-12-28T08:01:07.419Z,65.56
2022-12-28T08:03:34.827Z,65.68
2022-12-28T08:06:05.504Z,65.76
2022-12-28T08:08:34.995Z,65.60
2022-12-28T08:11:04.214Z,65.52
2022-12-28T08:13:32.434Z,65.51
2022-12-28T08:15:59.009Z,65.80
2022-12-28T08:18:26.265Z,65.21
2022-12-28T08:20:53.074Z,65.49
2022-12-28T08:23:19.707Z,65.12
2022-12-28T08:25:46.182Z,65.32
2022-12-28T08:28:12.720Z,65.54
2022-12-28T08:30:39.382Z,65.48
2022-12-28T08:33:05.915Z,65.35
2022-12-28T08:35:35.831Z,65.31
2022-12-28T08:38:02.317Z,65.59
2022-12-28T08:40:29.965Z,65.69
2022-12-28T08:42:58.762Z,65.31
2022-12-28T08:45:26.431Z,65.15
2022-12-28T08:47:53.457Z,65.36
2022-12-28T08:50:23.727Z,65.19
2022-12-28T08:52:53.069Z,65.33
2022-12-28T08:55:19.719Z,65.27
2022-12-28T08:57:46.266Z,65.25
2022-12-28T09:00:13.295Z,65.44
2022-12-28T09:02:40.178Z,65.34
2022-12-28T09:05:07.194Z,65.29
2022-12-28T09:07:33.676Z,65.43
2022-12-28T09:10:01.286Z,65.62
2022-12-28T09:12:27.911Z,65.31
2022-12-28T09:14:54.474Z,65.33
2022-12-28T09:17:21.060Z,65.30
2022-12-28T09:19:47.741Z,65.51
2022-12-28T09:22:14.349Z,65.12
2022-12-28T09:24:41.255Z,65.28
2022-12-28T09:27:07.739Z,65.62
2022-12-28T09:29:35.769Z,65.37
2022-12-28T09:32:02.221Z,65.46
2022-12-28T09:34:37.814Z,65.55
2022-12-28T09:37:08.421Z,65.59
2022-12-28T09:39:35.065Z,65.46
2022-12-28T09:42:16.700Z,65.33
2022-12-28T09:44:55.907Z,65.68
2022-12-28T09:47:25.847Z,65.43
2022-12-28T09:50:15.999Z,65.77
2022-12-28T09:53:06.822Z,65.66
2022-12-28T09:55:38.375Z,65.21
2022-12-28T09:58:11.794Z,65.46
2022-12-28T10:00:44.225Z,65.78
2022-12-28T10:03:20.383Z,65.48
2022-12-28T10:05:48.321Z,65.69
2022-12-28T10:08:18.265Z,65.88
2022-12-28T10:10:48.634Z,65.43
2022-12-28T10:13:53.663Z,65.31
2022-12-28T10:16:20.486Z,65.52
2022-12-28T10:18:49.133Z,65.25
2022-12-28T10:21:25.414Z,65.28
2022-12-28T10:24:29.726Z,65.58
2022-12-28T10:26:46.346Z,65.80
2022-12-28T10:29:19.024Z,65.76
2022-12-28T10:31:58.534Z,65.47
2022-12-28T10:34:25.340Z,65.73
2022-12-28T10:36:53.676Z,65.40
2022-12-28T10:39:26.914Z,65.33
2022-12-28T10:41:54.830Z,65.53
2022-12-28T10:44:40.151Z,65.36
2022-12-28T10:47:22.995Z,65.34
2022-12-28T10:50:10.544Z,65.71
2022-12-28T10:52:38.022Z,65.61
2022-12-28T10:55:31.996Z,65.63
2022-12-28T10:58:31.783Z,65.58
2022-12-28T11:01:12.310Z,65.51
2022-12-28T11:03:58.727Z,65.45
2022-12-28T11:06:28.188Z,65.41
2022-12-28T11:09:15.442Z,65.79
2022-12-28T11:11:44.016Z,65.53
2022-12-28T11:14:30.304Z,65.33
2022-12-28T11:16:57.183Z,65.79
2022-12-28T11:19:25.893Z,65.83
2022-12-28T11:21:52.964Z,65.68
2022-12-28T11:24:25.610Z,65.57
2022-12-28T11:26:52.224Z,65.52
2022-12-28T11:29:19.544Z,65.88
2022-12-28T11:32:08.518Z,65.43
2022-12-28T11:34:37.193Z,65.35
2022-12-28T11:37:03.729Z,65.57
2022-12-28T11:39:32.323Z,65.57
2022-12-28T11:44:49.507Z,65.85
2022-12-28T11:47:16.156Z,65.59
2022-12-28T11:49:45.178Z,65.79
2022-12-28T11:52:14.769Z,65.59
2022-12-28T11:55:26.213Z,65.41
2022-12-28T11:57:54.613Z,65.85
2022-12-28T12:00:23.223Z,65.61
2022-12-28T12:02:56.670Z,65.32
2022-12-28T12:05:38.433Z,65.53
2022-12-28T12:08:17.240Z,65.61
2022-12-28T12:10:44.817Z,65.42
2022-12-28T12:13:26.475Z,65.37
2022-12-28T12:15:56.668Z,65.56
2022-12-28T12:18:25.351Z,65.38
2022-12-28T12:21:15.600Z,65.30
2022-12-28T12:23:51.290Z,65.58
2022-12-28T12:26:43.878Z,65.16
2022-12-28T12:29:39.453Z,65.49
2022-12-28T12:32:22.211Z,65.04
2022-12-28T12:35:04.568Z,65.11
2022-12-28T12:37:43.279Z,65.19
2022-12-28T12:40:09.855Z,65.08
2022-12-28T12:43:13.454Z,65.14
2022-12-28T12:45:47.630Z,64.91
2022-12-28T12:48:20.083Z,65.05
2022-12-28T12:50:57.710Z,65.29
2022-12-28T12:53:36.122Z,65.04
2022-12-28T12:56:36.078Z,65.12
2022-12-28T12:59:39.655Z,64.97
2022-12-28T13:02:12.171Z,64.96
2022-12-28T13:04:46.053Z,65.27
2022-12-28T13:07:27.686Z,65.17
2022-12-28T13:09:58.525Z,65.02
2022-12-28T13:12:25.599Z,64.87
2022-12-28T13:15:00.487Z,64.84
2022-12-28T13:17:27.573Z,64.80
2022-12-28T13:20:17.220Z,64.60
2022-12-28T13:22:46.093Z,64.49
2022-12-28T13:25:34.555Z,64.96
2022-12-28T13:28:02.819Z,64.46
2022-12-28T13:30:30.720Z,64.75
2022-12-28T13:33:03.165Z,64.52
2022-12-28T13:35:33.049Z,64.49
2022-12-28T13:38:09.878Z,64.45
2022-12-28T13:40:38.903Z,64.58
2022-12-28T13:43:29.988Z,64.55
2022-12-28T13:46:02.744Z,64.26
2022-12-28T13:48:31.455Z,63.91
2022-12-28T13:50:58.313Z,64.12
2022-12-28T13:53:29.826Z,64.33
2022-12-28T13:56:00.407Z,64.10
2022-12-28T13:59:01.640Z,64.06
2022-12-28T14:01:33.841Z,63.73
2022-12-28T14:04:42.378Z,63.67
2022-12-28T14:06:52.051Z,63.54
2022-12-28T14:09:20.723Z,63.56
2022-12-28T14:11:48.880Z,63.80
2022-12-28T14:14:16.422Z,63.54
2022-12-28T14:16:44.093Z,63.72
2022-12-28T14:19:11.219Z,63.51
2022-12-28T14:21:44.175Z,63.67
2022-12-28T14:24:13.861Z,63.65
2022-12-28T14:26:48.490Z,63.17
2022-12-28T14:29:27.320Z,63.08
2022-12-28T14:32:06.773Z,63.27
2022-12-28T14:34:37.751Z,62.93
2022-12-28T14:37:05.375Z,63.01
2022-12-28T14:39:35.228Z,63.05
2022-12-28T14:42:04.417Z,62.95
2022-12-28T14:44:31.035Z,63.06
2022-12-28T14:46:58.207Z,62.55
2022-12-28T14:49:30.779Z,62.92
2022-12-28T14:51:57.221Z,62.69
2022-12-28T14:54:25.743Z,62.84
2022-12-28T14:57:00.807Z,62.35
2022-12-28T14:59:29.208Z,62.54
2022-12-28T15:01:56.162Z,62.34
2022-12-28T15:04:39.964Z,62.50
2022-12-28T15:07:11.867Z,62.56
2022-12-28T15:09:38.489Z,62.11
2022-12-28T15:12:22.043Z,62.41
2022-12-28T15:14:49.472Z,62.23
2022-12-28T15:17:16.812Z,61.92
2022-12-28T15:19:45.141Z,62.24
2022-12-28T15:22:12.943Z,61.92
2022-12-28T15:24:41.443Z,61.59
2022-12-28T15:27:07.957Z,62.01
2022-12-28T15:32:22.449Z,61.57
2022-12-28T15:34:48.963Z,61.70
2022-12-28T15:37:15.508Z,61.71
2022-12-28T15:39:42.091Z,61.45
2022-12-28T15:42:08.822Z,61.18
2022-12-28T15:44:35.318Z,61.08
2022-12-28T15:47:02.108Z,61.24
2022-12-28T15:49:28.693Z,61.00
2022-12-28T15:51:55.310Z,61.12
2022-12-28T15:54:21.823Z,61.22
2022-12-28T15:56:53.844Z,61.23
2022-12-28T15:59:20.457Z,61.33
2022-12-28T16:01:48.118Z,60.82
2022-12-28T16:04:14.887Z,61.16
2022-12-28T16:06:44.667Z,60.89
2022-12-28T16:09:12.660Z,60.77
2022-12-28T16:11:40.988Z,61.19
2022-12-28T16:14:08.914Z,61.25
2022-12-28T16:16:38.770Z,60.94
2022-12-28T16:19:06.850Z,61.01
2022-12-28T16:21:33.655Z,61.18
2022-12-28T16:24:01.021Z,61.04
2022-12-28T16:26:28.295Z,61.03
2022-12-28T16:28:55.300Z,61.31
2022-12-28T16:31:29.282Z,61.40
2022-12-28T16:34:03.768Z,61.25
2022-12-28T16:36:31.382Z,61.44
2022-12-28T16:38:58.304Z,61.09
2022-12-28T16:41:25.891Z,61.38
2022-12-28T16:44:01.559Z,61.56
2022-12-28T16:46:28.295Z,61.46
2022-12-28T16:48:55.011Z,61.52
2022-12-28T16:51:21.563Z,61.52
2022-12-28T16:53:48.044Z,61.80
2022-12-28T16:56:14.524Z,61.90
2022-12-28T16:58:44.919Z,61.84
2022-12-28T17:01:14.532Z,61.77
2022-12-28T17:03:41.177Z,62.15
2022-12-28T17:06:08.001Z,62.06
2022-12-28T17:08:35.927Z,61.83
2022-12-28T17:11:06.346Z,62.32
2022-12-28T17:13:33.965Z,62.13
2022-12-28T17:16:00.681Z,62.33
2022-12-28T17:18:27.607Z,62.11
2022-12-28T17:20:55.678Z,62.49
2022-12-28T17:23:22.711Z,62.05
2022-12-28T17:25:52.353Z,62.62
2022-12-28T17:28:18.875Z,62.60
2022-12-28T17:30:45.496Z,62.63
2022-12-28T17:33:14.180Z,62.63
2022-12-28T17:35:40.809Z,62.65
2022-12-28T17:38:07.376Z,62.83
2022-12-28T17:40:33.990Z,62.67
2022-12-28T17:43:00.470Z,63.02
2022-12-28T17:45:26.983Z,63.03
2022-12-28T17:47:53.584Z,62.65
2022-12-28T17:50:20.190Z,62.59
2022-12-28T17:52:46.979Z,62.80
2022-12-28T17:55:13.634Z,63.10
2022-12-28T17:57:40.150Z,63.10
2022-12-28T18:00:07.320Z,63.20
2022-12-28T18:02:39.039Z,62.82
2022-12-28T18:05:06.404Z,62.99
2022-12-28T18:07:33.121Z,63.21
2022-12-28T18:09:59.664Z,63.32
2022-12-28T18:12:26.198Z,63.42
2022-12-28T18:14:52.871Z,63.07
2022-12-28T18:17:23.144Z,63.17
2022-12-28T18:19:52.907Z,63.27
2022-12-28T18:22:20.746Z,63.30
2022-12-28T18:24:47.275Z,63.35
2022-12-28T18:27:13.822Z,63.27
2022-12-28T18:29:40.471Z,63.53
2022-12-28T18:32:06.993Z,63.29
2022-12-28T18:34:33.478Z,63.26
2022-12-28T18:37:00.032Z,63.49
2022-12-28T18:39:26.631Z,63.49
2022-12-28T18:41:53.252Z,63.59
2022-12-28T18:44:19.840Z,63.63
2022-12-28T18:46:46.382Z,63.56
2022-12-28T18:49:13.009Z,63.47
2022-12-28T18:51:39.541Z,63.59
2022-12-28T18:54:06.108Z,63.67
2022-12-28T18:56:32.658Z,63.76
2022-12-28T18:58:59.283Z,64.00
2022-12-28T19:04:16.202Z,64.00
2022-12-28T19:06:43.198Z,63.75
2022-12-28T19:09:10.690Z,63.96
2022-12-28T19:11:38.559Z,63.79
2022-12-28T19:14:07.403Z,64.06
2022-12-28T19:16:34.656Z,64.19
2022-12-28T19:19:01.338Z,64.11
2022-12-28T19:21:30.337Z,63.93
2022-12-28T19:24:09.879Z,64.18
2022-12-28T19:26:36.457Z,64.29
2022-12-28T19:29:03.500Z,64.41
2022-12-28T19:31:30.780Z,64.40
2022-12-28T19:33:57.397Z,64.58
2022-12-28T19:36:24.265Z,64.58
2022-12-28T19:38:53.293Z,64.59
2022-12-28T19:41:19.918Z,64.31
2022-12-28T19:43:46.466Z,64.64
2022-12-28T19:46:16.717Z,64.35
2022-12-28T19:48:43.273Z,64.38
2022-12-28T19:51:10.070Z,64.31
2022-12-28T19:53:37.480Z,64.66
2022-12-28T19:56:06.817Z,64.70
2022-12-28T19:58:35.037Z,64.53
2022-12-28T20:01:19.618Z,64.77
2022-12-28T20:03:48.230Z,64.48
2022-12-28T20:06:23.672Z,64.81
2022-12-28T20:08:51.182Z,64.50
2022-12-28T20:11:19.881Z,64.76
2022-12-28T20:13:53.787Z,64.47
2022-12-28T20:16:21.584Z,64.59
2022-12-28T20:18:49.637Z,64.60
2022-12-28T20:21:19.476Z,64.70
2022-12-28T20:23:48.025Z,64.92
2022-12-28T20:26:15.104Z,64.85
2022-12-28T20:28:41.627Z,64.87
2022-12-28T20:31:10.827Z,65.27
2022-12-28T20:33:38.084Z,64.98
2022-12-28T20:36:07.711Z,64.71
2022-12-28T20:38:34.842Z,65.14
2022-12-28T20:41:02.433Z,65.14
2022-12-28T20:43:29.090Z,65.34
2022-12-28T20:45:55.650Z,65.16
2022-12-28T20:48:22.263Z,65.28
2022-12-28T20:50:48.806Z,65.29
2022-12-28T20:53:16.021Z,65.54
2022-12-28T20:55:42.585Z,65.36
2022-12-28T20:58:09.241Z,65.64
2022-12-28T21:00:38.533Z,65.41
2022-12-28T21:03:05.530Z,65.37
2022-12-28T21:05:32.252Z,65.05
2022-12-28T21:07:59.355Z,65.30
2022-12-28T21:10:25.917Z,65.54
2022-12-28T21:12:52.454Z,65.32
2022-12-28T21:15:19.143Z,65.18
2022-12-28T21:17:45.698Z,65.35
2022-12-28T21:20:12.221Z,65.03
2022-12-28T21:22:38.777Z,64.85
2022-12-28T21:25:05.943Z,64.85
2022-12-28T21:27:32.417Z,65.08
2022-12-28T21:29:58.959Z,65.04
2022-12-28T21:32:25.555Z,64.57
2022-12-28T21:34:52.121Z,64.53
2022-12-28T21:37:36.696Z,64.71
2022-12-28T21:40:06.962Z,64.51
2022-12-28T21:42:34.763Z,64.39
2022-12-28T21:45:02.160Z,64.65
2022-12-28T21:47:28.875Z,64.49
2022-12-28T21:49:55.436Z,64.50
2022-12-28T21:52:22.517Z,64.76
2022-12-28T21:54:49.110Z,64.85
2022-12-28T21:57:15.691Z,64.25
2022-12-28T21:59:42.967Z,64.71
2022-12-28T22:02:36.990Z,64.58
2022-12-28T22:05:23.037Z,64.39
2022-12-28T22:08:10.422Z,64.00
2022-12-28T22:10:56.560Z,64.02
2022-12-28T22:13:23.444Z,63.91
2022-12-28T22:15:52.904Z,64.49
2022-12-28T22:18:44.882Z,64.00
2022-12-28T22:21:08.425Z,64.37
2022-12-28T22:23:35.320Z,64.20
2022-12-28T22:26:02.444Z,64.03
2022-12-28T22:28:29.013Z,64.24
2022-12-28T22:30:55.515Z,64.22
2022-12-28T22:33:22.042Z,64.29
2022-12-28T22:35:48.622Z,64.19
2022-12-28T22:38:15.142Z,64.35
2022-12-28T22:40:41.673Z,64.39
2022-12-28T22:43:08.240Z,64.02
2022-12-28T22:45:34.850Z,64.35
2022-12-28T22:48:01.447Z,63.84
2022-12-28T22:50:28.699Z,64.09
2022-12-28T22:52:55.895Z,64.31
2022-12-28T22:55:22.472Z,64.14
2022-12-28T22:57:49.068Z,64.07
2022-12-28T23:00:15.849Z,63.97
2022-12-28T23:02:43.418Z,64.08
2022-12-28T23:05:10.188Z,64.32
2022-12-28T23:07:38.638Z,64.03
2022-12-28T23:10:07.230Z,64.05
2022-12-28T23:12:33.846Z,63.80
2022-12-28T23:15:29.582Z,63.81
2022-12-28T23:18:16.072Z,63.86
2022-12-28T23:21:00.971Z,64.15
2022-12-28T23:23:46.246Z,64.10
2022-12-28T23:26:31.193Z,63.74
2022-12-28T23:28:57.780Z,63.79
2022-12-28T23:31:24.439Z,63.70
2022-12-28T23:33:52.647Z,64.03
2022-12-28T23:36:19.181Z,64.04
2022-12-28T23:38:45.706Z,63.72
2022-12-28T23:41:34.573Z,64.15
2022-12-28T23:44:01.213Z,64.12
2022-12-28T23:46:27.779Z,63.78
2022-12-28T23:48:54.327Z,64.17
2022-12-28T23:51:20.963Z,63.69
2022-12-28T23:53:47.760Z,63.62
2022-12-28T23:56:14.326Z,63.97
2022-12-28T23:58:40.848Z,64.07
